createdAt,value
2022-09-24T04:00:28.880Z,88.69
2022-09-24T04:01:26.884Z,88.39
2022-09-24T04:02:26.828Z,88.63
2022-09-24T04:03:26.815Z,88.53
2022-09-24T04:04:26.786Z,88.73
2022-09-24T04:05:26.833Z,88.59
2022-09-24T04:06:26.765Z,89.25
2022-09-24T04:07:26.762Z,89.75
2022-09-24T04:08:26.754Z,88.93
2022-09-24T04:09:26.732Z,89.40
2022-09-24T04:10:26.734Z,89.40
2022-09-24T04:11:31.738Z,89.45
2022-09-24T04:12:26.763Z,89.25
2022-09-24T04:13:26.689Z,89.55
2022-09-24T04:14:26.692Z,89.65
2022-09-24T04:15:26.680Z,90.20
2022-09-24T04:16:26.724Z,90.51
2022-09-24T04:17:26.674Z,90.61
2022-09-24T04:18:26.765Z,90.41
2022-09-24T04:19:26.620Z,90.31
2022-09-24T04:20:26.623Z,90.31
2022-09-24T04:21:26.599Z,90.31
2022-09-24T04:22:31.612Z,90.57
2022-09-24T04:23:26.593Z,90.57
2022-09-24T04:24:26.565Z,89.96
2022-09-24T04:25:26.568Z,90.06
2022-09-24T04:26:26.579Z,90.10
2022-09-24T04:27:26.530Z,89.65
2022-09-24T04:28:26.527Z,89.65
2022-09-24T04:29:26.507Z,89.96
2022-09-24T04:30:26.511Z,89.04
2022-09-24T04:31:26.575Z,89.34
2022-09-24T04:32:26.498Z,89.25
2022-09-24T04:33:31.491Z,89.34
2022-09-24T04:34:26.455Z,89.45
2022-09-24T04:35:26.456Z,89.25
2022-09-24T04:36:26.427Z,89.45
2022-09-24T04:37:26.420Z,89.34
2022-09-24T04:38:26.407Z,89.45
2022-09-24T04:39:26.395Z,89.45
2022-09-24T04:40:26.404Z,89.75
2022-09-24T04:41:26.389Z,89.34
2022-09-24T04:42:26.378Z,88.93
2022-09-24T04:43:26.355Z,89.25
2022-09-24T04:44:31.363Z,89.25
2022-09-24T04:45:26.329Z,89.55
2022-09-24T04:46:26.380Z,89.65
2022-09-24T04:47:26.333Z,89.65
2022-09-24T04:48:26.343Z,89.34
2022-09-24T04:49:26.290Z,89.86
2022-09-24T04:50:26.278Z,89.86
2022-09-24T04:51:26.277Z,89.69
2022-09-24T04:52:26.260Z,89.69
2022-09-24T04:53:26.239Z,90.81
2022-09-24T04:54:26.226Z,90.41
2022-09-24T04:55:31.251Z,90.45
2022-09-24T04:56:26.210Z,90.31
2022-09-24T04:57:26.198Z,90.55
2022-09-24T04:58:26.197Z,90.66
2022-09-24T04:59:26.176Z,90.71
2022-09-24T05:00:26.177Z,90.35
2022-09-24T05:01:26.192Z,90.86
2022-09-24T05:02:26.226Z,90.45
2022-09-24T05:03:26.158Z,90.81
2022-09-24T05:04:26.221Z,89.90
2022-09-24T05:05:26.104Z,89.49
2022-09-24T05:06:31.125Z,89.59
2022-09-24T05:07:26.082Z,89.55
2022-09-24T05:08:26.076Z,89.45
2022-09-24T05:09:26.066Z,89.45
2022-09-24T05:10:26.058Z,89.75
2022-09-24T05:11:26.050Z,88.84
2022-09-24T05:12:26.029Z,89.25
2022-09-24T05:13:26.023Z,89.04
2022-09-24T05:14:26.008Z,89.04
2022-09-24T05:15:25.997Z,89.25
2022-09-24T05:16:26.060Z,89.14
2022-09-24T05:17:31.067Z,89.04
2022-09-24T05:18:25.957Z,88.93
2022-09-24T05:19:25.951Z,88.73
2022-09-24T05:20:25.975Z,88.73
2022-09-24T05:21:25.955Z,88.93
2022-09-24T05:22:25.933Z,88.93
2022-09-24T05:23:25.906Z,88.63
2022-09-24T05:24:25.890Z,88.63
2022-09-24T05:25:25.881Z,88.43
2022-09-24T05:26:25.909Z,88.73
2022-09-24T05:27:25.858Z,88.63
2022-09-24T05:28:30.868Z,88.93
2022-09-24T05:29:25.845Z,88.12
2022-09-24T05:30:25.826Z,88.32
2022-09-24T05:31:25.883Z,88.59
2022-09-24T05:32:25.809Z,89.00
2022-09-24T05:33:25.793Z,88.84
2022-09-24T05:34:25.780Z,88.93
2022-09-24T05:35:25.770Z,88.73
2022-09-24T05:36:25.794Z,88.32
2022-09-24T05:37:25.778Z,88.69
2022-09-24T05:38:25.741Z,87.88
2022-09-24T05:39:33.899Z,88.18
2022-09-24T05:40:25.766Z,88.39
2022-09-24T05:41:25.714Z,87.77
2022-09-24T05:42:25.709Z,87.88
2022-09-24T05:43:25.685Z,87.67
2022-09-24T05:44:25.668Z,87.77
2022-09-24T05:45:25.658Z,88.08
2022-09-24T05:46:25.716Z,88.39
2022-09-24T05:47:25.656Z,88.39
2022-09-24T05:48:25.629Z,88.28
2022-09-24T05:49:25.617Z,88.39
2022-09-24T05:50:30.628Z,87.77
2022-09-24T05:51:25.601Z,87.98
2022-09-24T05:52:25.683Z,88.28
2022-09-24T05:53:25.570Z,88.49
2022-09-24T05:54:25.555Z,89.00
2022-09-24T05:55:30.055Z,89.00
2022-09-24T05:56:26.558Z,88.79
2022-09-24T05:57:25.523Z,89.51
2022-09-24T05:58:25.530Z,89.67
2022-09-24T05:59:25.500Z,89.57
2022-09-24T06:00:25.492Z,89.26
2022-09-24T06:01:30.598Z,89.57
2022-09-24T06:02:25.515Z,89.67
2022-09-24T06:03:25.523Z,89.57
2022-09-24T06:04:25.446Z,89.06
2022-09-24T06:05:25.435Z,89.36
2022-09-24T06:06:25.431Z,88.96
2022-09-24T06:07:25.412Z,89.36
2022-09-24T06:08:25.417Z,89.67
2022-09-24T06:09:25.390Z,89.16
2022-09-24T06:10:25.383Z,89.67
2022-09-24T06:11:25.393Z,89.36
2022-09-24T06:12:30.401Z,88.96
2022-09-24T06:13:25.343Z,88.45
2022-09-24T06:14:25.332Z,88.75
2022-09-24T06:15:25.324Z,88.34
2022-09-24T06:16:25.409Z,87.73
2022-09-24T06:17:25.299Z,87.84
2022-09-24T06:18:25.291Z,87.84
2022-09-24T06:19:25.274Z,88.14
2022-09-24T06:20:25.265Z,88.24
2022-09-24T06:21:25.286Z,88.04
2022-09-24T06:22:28.545Z,87.84
2022-09-24T06:23:30.272Z,87.84
2022-09-24T06:24:25.220Z,87.73
2022-09-24T06:25:25.209Z,87.73
2022-09-24T06:26:25.206Z,87.73
2022-09-24T06:27:25.187Z,87.84
2022-09-24T06:28:25.175Z,87.43
2022-09-24T06:29:25.162Z,87.38
2022-09-24T06:30:25.153Z,87.43
2022-09-24T06:31:25.204Z,87.23
2022-09-24T06:32:25.130Z,87.59
2022-09-24T06:33:25.121Z,87.12
2022-09-24T06:34:30.131Z,86.98
2022-09-24T06:35:25.096Z,87.49
2022-09-24T06:36:25.098Z,87.38
2022-09-24T06:37:25.071Z,87.38
2022-09-24T06:38:25.068Z,87.59
2022-09-24T06:39:25.069Z,86.98
2022-09-24T06:40:25.118Z,86.98
2022-09-24T06:41:25.037Z,87.04
2022-09-24T06:42:25.016Z,86.98
2022-09-24T06:43:25.005Z,87.04
2022-09-24T06:44:24.997Z,87.08
2022-09-24T06:45:30.006Z,87.04
2022-09-24T06:46:25.005Z,87.14
2022-09-24T06:47:24.971Z,86.83
2022-09-24T06:48:24.951Z,86.94
2022-09-24T06:49:26.331Z,86.74
2022-09-24T06:50:24.949Z,86.83
2022-09-24T06:51:24.936Z,86.68
2022-09-24T06:52:24.908Z,86.83
2022-09-24T06:53:24.951Z,86.74
2022-09-24T06:54:24.893Z,87.04
2022-09-24T06:55:24.973Z,86.74
2022-09-24T06:56:29.904Z,86.53
2022-09-24T06:57:28.772Z,86.43
2022-09-24T06:58:24.840Z,86.33
2022-09-24T06:59:24.826Z,86.33
2022-09-24T07:00:24.899Z,85.78
2022-09-24T07:01:24.924Z,85.72
2022-09-24T07:02:24.875Z,85.92
2022-09-24T07:03:24.791Z,85.82
2022-09-24T07:04:24.773Z,85.72
2022-09-24T07:05:24.770Z,85.82
2022-09-24T07:06:24.750Z,86.13
2022-09-24T07:07:29.785Z,86.33
2022-09-24T07:08:24.738Z,86.53
2022-09-24T07:09:24.717Z,86.43
2022-09-24T07:10:24.791Z,86.43
2022-09-24T07:11:24.719Z,86.43
2022-09-24T07:12:24.696Z,86.63
2022-09-24T07:13:24.679Z,86.74
2022-09-24T07:14:24.676Z,86.63
2022-09-24T07:15:24.652Z,86.98
2022-09-24T07:16:24.772Z,86.94
2022-09-24T07:17:24.643Z,87.04
2022-09-24T07:18:29.643Z,87.14
2022-09-24T07:19:24.618Z,86.63
2022-09-24T07:20:24.728Z,86.33
2022-09-24T07:21:24.585Z,86.22
2022-09-24T07:22:24.589Z,86.19
2022-09-24T07:23:24.563Z,86.19
2022-09-24T07:24:24.567Z,86.08
2022-09-24T07:25:24.561Z,86.13
2022-09-24T07:26:24.552Z,86.29
2022-09-24T07:27:24.633Z,86.19
2022-09-24T07:28:24.521Z,85.58
2022-09-24T07:29:29.547Z,85.84
2022-09-24T07:30:24.563Z,85.37
2022-09-24T07:31:24.550Z,85.47
2022-09-24T07:32:29.578Z,85.37
2022-09-24T07:33:25.473Z,85.78
2022-09-24T07:34:24.443Z,85.47
2022-09-24T07:35:24.430Z,85.68
2022-09-24T07:36:24.431Z,85.78
2022-09-24T07:37:24.434Z,85.98
2022-09-24T07:38:24.567Z,86.08
2022-09-24T07:39:24.389Z,85.98
2022-09-24T07:40:29.579Z,86.19
2022-09-24T07:41:24.377Z,86.29
2022-09-24T07:42:24.375Z,86.39
2022-09-24T07:43:24.452Z,85.98
2022-09-24T07:44:24.336Z,85.74
2022-09-24T07:45:24.322Z,85.23
2022-09-24T07:46:24.344Z,84.58
2022-09-24T07:47:24.310Z,84.38
2022-09-24T07:48:24.306Z,84.13
2022-09-24T07:49:24.283Z,83.01
2022-09-24T07:50:24.269Z,83.53
2022-09-24T07:51:29.277Z,83.32
2022-09-24T07:52:24.255Z,83.01
2022-09-24T07:53:24.246Z,83.01
2022-09-24T07:54:24.226Z,83.22
2022-09-24T07:55:24.216Z,82.10
2022-09-24T07:56:24.200Z,82.40
2022-09-24T07:57:24.209Z,83.01
2022-09-24T07:58:24.181Z,82.40
2022-09-24T07:59:24.195Z,83.01
2022-09-24T08:00:24.234Z,82.98
2022-09-24T08:01:24.227Z,82.17
2022-09-24T08:02:29.170Z,82.17
2022-09-24T08:03:24.191Z,81.86
2022-09-24T08:04:24.159Z,81.56
2022-09-24T08:05:24.108Z,81.35
2022-09-24T08:06:24.088Z,81.35
2022-09-24T08:07:24.096Z,81.01
2022-09-24T08:08:24.067Z,80.10
2022-09-24T08:09:24.056Z,80.30
2022-09-24T08:10:24.063Z,80.36
2022-09-24T08:11:24.065Z,79.51
2022-09-24T08:12:24.061Z,78.91
2022-09-24T08:13:29.039Z,79.21
2022-09-24T08:14:24.000Z,79.41
2022-09-24T08:15:24.094Z,78.60
2022-09-24T08:16:24.008Z,78.70
2022-09-24T08:17:23.992Z,78.91
2022-09-24T08:18:23.957Z,78.66
2022-09-24T08:19:23.981Z,78.40
2022-09-24T08:20:23.936Z,78.09
2022-09-24T08:21:23.923Z,78.23
2022-09-24T08:22:23.937Z,78.64
2022-09-24T08:23:23.897Z,78.33
2022-09-24T08:24:28.909Z,78.44
2022-09-24T08:25:23.874Z,78.64
2022-09-24T08:26:23.878Z,78.60
2022-09-24T08:27:23.888Z,78.64
2022-09-24T08:28:23.842Z,79.04
2022-09-24T08:29:23.834Z,79.14
2022-09-24T08:30:23.843Z,78.64
2022-09-24T08:31:23.997Z,78.53
2022-09-24T08:32:23.828Z,78.70
2022-09-24T08:33:23.792Z,78.30
2022-09-24T08:34:23.816Z,78.40
2022-09-24T08:35:28.801Z,77.79
2022-09-24T08:36:23.755Z,77.99
2022-09-24T08:37:23.755Z,77.25
2022-09-24T08:38:23.733Z,77.55
2022-09-24T08:39:23.726Z,78.40
2022-09-24T08:40:23.751Z,77.25
2022-09-24T08:41:23.697Z,77.14
2022-09-24T08:42:23.697Z,77.04
2022-09-24T08:43:23.688Z,77.04
2022-09-24T08:44:23.671Z,76.64
2022-09-24T08:45:23.651Z,76.43
2022-09-24T08:46:28.737Z,76.74
2022-09-24T08:47:23.642Z,76.33
2022-09-24T08:48:23.636Z,76.29
2022-09-24T08:49:23.605Z,76.33
2022-09-24T08:50:23.603Z,76.03
2022-09-24T08:51:23.584Z,75.42
2022-09-24T08:52:23.586Z,75.79
2022-09-24T08:53:23.569Z,76.43
2022-09-24T08:54:23.559Z,76.54
2022-09-24T08:55:23.539Z,76.94
2022-09-24T08:56:23.544Z,76.84
2022-09-24T08:57:28.587Z,76.84
2022-09-24T08:58:23.507Z,77.11
2022-09-24T08:59:23.499Z,77.45
2022-09-24T09:00:23.486Z,78.42
2022-09-24T09:01:23.588Z,78.22
2022-09-24T09:02:23.721Z,78.33
2022-09-24T09:03:23.469Z,78.73
2022-09-24T09:04:23.443Z,78.53
2022-09-24T09:05:23.471Z,78.42
2022-09-24T09:06:23.427Z,79.64
2022-09-24T09:07:23.426Z,78.83
2022-09-24T09:08:50.608Z,78.83
2022-09-24T09:09:24.388Z,79.13
2022-09-24T09:10:23.392Z,79.13
2022-09-24T09:11:23.364Z,79.24
2022-09-24T09:12:23.358Z,78.83
2022-09-24T09:13:23.362Z,79.13
2022-09-24T09:14:23.436Z,79.13
2022-09-24T09:15:23.319Z,78.12
2022-09-24T09:16:23.428Z,78.73
2022-09-24T09:17:23.293Z,78.53
2022-09-24T09:18:23.414Z,78.53
2022-09-24T09:19:28.294Z,79.10
2022-09-24T09:20:23.262Z,77.88
2022-09-24T09:21:23.332Z,77.98
2022-09-24T09:22:23.259Z,78.12
2022-09-24T09:23:23.241Z,78.08
2022-09-24T09:24:23.222Z,78.63
2022-09-24T09:25:23.216Z,77.98
2022-09-24T09:26:23.264Z,77.88
2022-09-24T09:27:23.186Z,78.42
2022-09-24T09:28:23.198Z,78.83
2022-09-24T09:29:23.164Z,78.53
2022-09-24T09:30:28.172Z,78.42
2022-09-24T09:31:23.191Z,78.63
2022-09-24T09:32:23.141Z,78.22
2022-09-24T09:33:23.143Z,78.63
2022-09-24T09:34:23.127Z,79.38
2022-09-24T09:35:23.098Z,79.38
2022-09-24T09:36:23.082Z,79.17
2022-09-24T09:37:25.988Z,79.07
2022-09-24T09:38:23.095Z,78.77
2022-09-24T09:39:23.047Z,78.16
2022-09-24T09:40:24.708Z,78.22
2022-09-24T09:41:28.052Z,78.22
2022-09-24T09:42:23.015Z,78.53
2022-09-24T09:43:23.021Z,78.53
2022-09-24T09:44:22.993Z,78.12
2022-09-24T09:45:27.509Z,78.12
2022-09-24T09:46:24.016Z,79.03
2022-09-24T09:47:22.979Z,78.53
2022-09-24T09:48:22.982Z,78.12
2022-09-24T09:49:22.936Z,78.53
2022-09-24T09:50:22.963Z,78.02
2022-09-24T09:51:23.510Z,77.31
2022-09-24T09:52:27.926Z,76.97
2022-09-24T09:53:22.959Z,76.26
2022-09-24T09:54:23.012Z,75.85
2022-09-24T09:55:22.871Z,75.65
2022-09-24T09:56:22.878Z,75.65
2022-09-24T09:57:22.862Z,75.65
2022-09-24T09:58:22.849Z,75.65
2022-09-24T09:59:28.776Z,75.45
2022-09-24T10:00:23.845Z,75.52
2022-09-24T10:01:22.819Z,75.62
2022-09-24T10:02:23.010Z,75.31
2022-09-24T10:03:27.863Z,74.20
2022-09-24T10:04:22.771Z,73.46
2022-09-24T10:05:27.177Z,74.07
2022-09-24T10:06:22.767Z,73.25
2022-09-24T10:07:22.734Z,73.36
2022-09-24T10:08:22.726Z,74.03
2022-09-24T10:09:22.734Z,73.22
2022-09-24T10:10:22.704Z,73.39
2022-09-24T10:11:22.695Z,72.48
2022-09-24T10:12:22.702Z,72.99
2022-09-24T10:13:22.672Z,72.08
2022-09-24T10:14:27.697Z,71.97
2022-09-24T10:15:22.645Z,72.08
2022-09-24T10:16:22.819Z,72.08
2022-09-24T10:17:22.650Z,71.64
2022-09-24T10:18:22.617Z,72.08
2022-09-24T10:19:22.613Z,71.84
2022-09-24T10:20:22.598Z,71.84
2022-09-24T10:21:26.098Z,71.73
2022-09-24T10:22:23.608Z,71.94
2022-09-24T10:23:22.565Z,71.73
2022-09-24T10:24:22.562Z,71.53
2022-09-24T10:25:27.561Z,71.44
2022-09-24T10:26:22.528Z,71.87
2022-09-24T10:27:22.512Z,71.87
2022-09-24T10:28:22.544Z,72.17
2022-09-24T10:29:22.505Z,72.08
2022-09-24T10:30:22.501Z,72.99
2022-09-24T10:31:22.632Z,71.84
2022-09-24T10:32:22.489Z,71.94
2022-09-24T10:33:22.450Z,71.94
2022-09-24T10:34:22.450Z,71.64
2022-09-24T10:35:22.427Z,71.80
2022-09-24T10:36:27.445Z,71.60
2022-09-24T10:37:22.408Z,72.14
2022-09-24T10:38:22.409Z,71.84
2022-09-24T10:39:22.402Z,72.00
2022-09-24T10:40:22.518Z,72.31
2022-09-24T10:41:22.373Z,72.21
2022-09-24T10:42:22.344Z,72.11
2022-09-24T10:43:22.381Z,71.60
2022-09-24T10:44:22.335Z,71.50
2022-09-24T10:45:22.316Z,71.40
2022-09-24T10:46:22.338Z,72.14
2022-09-24T10:47:27.312Z,72.44
2022-09-24T10:48:22.281Z,72.04
2022-09-24T10:49:22.296Z,72.00
2022-09-24T10:50:22.254Z,72.61
2022-09-24T10:51:26.584Z,72.61
2022-09-24T10:52:23.233Z,73.42
2022-09-24T10:53:22.223Z,72.71
2022-09-24T10:54:22.249Z,72.11
2022-09-24T10:55:22.226Z,72.41
2022-09-24T10:56:22.191Z,71.60
2022-09-24T10:57:22.180Z,71.57
2022-09-24T10:58:27.190Z,72.17
2022-09-24T10:59:22.169Z,72.51
2022-09-24T11:00:22.166Z,72.38
2022-09-24T11:01:22.214Z,71.73
2022-09-24T11:02:22.234Z,72.04
2022-09-24T11:03:22.244Z,71.57
2022-09-24T11:04:22.137Z,71.77
2022-09-24T11:05:22.089Z,72.78
2022-09-24T11:06:22.110Z,72.48
2022-09-24T11:07:22.069Z,72.48
2022-09-24T11:08:22.052Z,71.87
2022-09-24T11:09:27.094Z,72.68
2022-09-24T11:10:22.030Z,73.08
2022-09-24T11:11:22.022Z,72.68
2022-09-24T11:12:22.007Z,72.88
2022-09-24T11:13:21.997Z,73.15
2022-09-24T11:14:22.001Z,72.54
2022-09-24T11:15:21.995Z,72.34
2022-09-24T11:16:22.080Z,71.84
2022-09-24T11:17:21.957Z,71.73
2022-09-24T11:18:21.957Z,71.73
2022-09-24T11:19:21.940Z,72.14
2022-09-24T11:20:26.940Z,71.70
2022-09-24T11:21:21.912Z,72.44
2022-09-24T11:22:21.910Z,72.54
2022-09-24T11:23:21.885Z,72.75
2022-09-24T11:24:21.885Z,72.64
2022-09-24T11:25:21.965Z,72.04
2022-09-24T11:26:21.859Z,73.35
2022-09-24T11:27:21.846Z,72.64
2022-09-24T11:28:21.876Z,72.14
2022-09-24T11:29:21.844Z,71.94
2022-09-24T11:30:21.821Z,72.54
2022-09-24T11:31:26.933Z,72.64
2022-09-24T11:32:21.786Z,72.54
2022-09-24T11:33:23.202Z,72.64
2022-09-24T11:34:21.794Z,72.14
2022-09-24T11:35:21.754Z,72.44
2022-09-24T11:36:21.741Z,72.34
2022-09-24T11:37:21.777Z,72.64
2022-09-24T11:38:21.720Z,71.91
2022-09-24T11:39:21.724Z,71.70
2022-09-24T11:40:21.770Z,71.80
2022-09-24T11:41:21.708Z,71.70
2022-09-24T11:42:26.695Z,71.80
2022-09-24T11:43:21.686Z,71.91
2022-09-24T11:44:21.669Z,71.67
2022-09-24T11:45:21.643Z,71.47
2022-09-24T11:46:21.702Z,71.60
2022-09-24T11:47:21.622Z,71.57
2022-09-24T11:48:21.628Z,71.57
2022-09-24T11:49:21.605Z,71.47
2022-09-24T11:50:21.589Z,71.77
2022-09-24T11:51:21.574Z,71.57
2022-09-24T11:52:21.558Z,72.38
2022-09-24T11:53:26.572Z,71.57
2022-09-24T11:54:21.559Z,71.97
2022-09-24T11:55:21.530Z,71.87
2022-09-24T11:56:21.517Z,71.77
2022-09-24T11:57:21.521Z,71.67
2022-09-24T11:58:21.490Z,71.53
2022-09-24T11:59:21.499Z,71.57
2022-09-24T12:00:21.470Z,71.84
2022-09-24T12:01:21.502Z,72.14
2022-09-24T12:02:21.509Z,71.23
2022-09-24T12:03:25.927Z,71.10
2022-09-24T12:04:27.465Z,71.20
2022-09-24T12:05:21.418Z,70.70
2022-09-24T12:06:21.406Z,70.09
2022-09-24T12:07:21.393Z,70.16
2022-09-24T12:08:21.427Z,69.76
2022-09-24T12:09:21.376Z,70.26
2022-09-24T12:10:21.377Z,69.65
2022-09-24T12:11:21.359Z,70.16
2022-09-24T12:12:21.337Z,69.56
2022-09-24T12:13:21.353Z,69.76
2022-09-24T12:14:21.449Z,70.19
2022-09-24T12:15:26.328Z,71.23
2022-09-24T12:16:21.398Z,71.84
2022-09-24T12:17:21.281Z,71.73
2022-09-24T12:18:21.282Z,71.73
2022-09-24T12:19:21.284Z,71.84
2022-09-24T12:20:21.246Z,71.20
2022-09-24T12:21:21.242Z,69.89
2022-09-24T12:22:21.228Z,71.20
2022-09-24T12:23:21.215Z,70.09
2022-09-24T12:24:21.256Z,70.19
2022-09-24T12:25:21.194Z,70.09
2022-09-24T12:26:26.215Z,70.29
2022-09-24T12:27:21.171Z,69.65
2022-09-24T12:28:21.157Z,70.29
2022-09-24T12:29:21.251Z,70.06
2022-09-24T12:30:21.163Z,71.36
2022-09-24T12:31:21.169Z,70.66
2022-09-24T12:32:21.116Z,70.26
2022-09-24T12:33:21.129Z,69.79
2022-09-24T12:34:21.092Z,70.66
2022-09-24T12:35:21.095Z,70.16
2022-09-24T12:36:21.071Z,70.36
2022-09-24T12:37:26.081Z,70.12
2022-09-24T12:38:21.046Z,69.72
2022-09-24T12:39:21.036Z,70.26
2022-09-24T12:40:21.078Z,70.23
2022-09-24T12:41:21.019Z,70.32
2022-09-24T12:42:21.003Z,70.12
2022-09-24T12:43:20.996Z,70.03
2022-09-24T12:44:22.340Z,69.52
2022-09-24T12:45:21.042Z,69.72
2022-09-24T12:46:21.038Z,70.16
2022-09-24T12:47:21.008Z,71.06
2022-09-24T12:48:25.984Z,71.40
2022-09-24T12:49:20.940Z,71.47
2022-09-24T12:50:20.946Z,71.47
2022-09-24T12:51:20.904Z,71.47
2022-09-24T12:52:20.903Z,71.56
2022-09-24T12:53:20.880Z,71.36
2022-09-24T12:54:20.869Z,70.06
2022-09-24T12:55:20.891Z,70.06
2022-09-24T12:56:20.854Z,70.56
2022-09-24T12:57:25.242Z,70.46
2022-09-24T12:58:21.833Z,70.16
2022-09-24T12:59:25.856Z,70.16
2022-09-24T13:00:20.813Z,70.56
2022-09-24T13:01:21.113Z,70.26
2022-09-24T13:02:20.979Z,69.76
2022-09-24T13:03:20.770Z,69.96
2022-09-24T13:04:20.766Z,70.96
2022-09-24T13:05:20.757Z,71.06
2022-09-24T13:06:20.736Z,71.36
2022-09-24T13:07:20.731Z,71.36
2022-09-24T13:08:20.711Z,71.16
2022-09-24T13:09:25.461Z,71.16
2022-09-24T13:10:26.749Z,71.16
2022-09-24T13:11:20.682Z,71.16
2022-09-24T13:12:20.679Z,71.26
2022-09-24T13:13:20.657Z,71.26
2022-09-24T13:14:20.646Z,71.16
2022-09-24T13:15:23.901Z,71.36
2022-09-24T13:16:21.727Z,70.96
2022-09-24T13:17:20.646Z,70.86
2022-09-24T13:18:20.626Z,70.56
2022-09-24T13:19:20.590Z,71.16
2022-09-24T13:20:20.591Z,71.16
2022-09-24T13:21:25.594Z,71.16
2022-09-24T13:22:20.557Z,69.85
2022-09-24T13:23:20.545Z,71.16
2022-09-24T13:24:20.536Z,70.76
2022-09-24T13:25:20.534Z,71.36
2022-09-24T13:26:20.511Z,71.16
2022-09-24T13:27:20.504Z,71.16
2022-09-24T13:28:20.494Z,71.16
2022-09-24T13:29:20.496Z,70.86
2022-09-24T13:30:20.476Z,70.32
2022-09-24T13:31:20.481Z,70.63
2022-09-24T13:32:25.526Z,70.32
2022-09-24T13:33:20.435Z,71.43
2022-09-24T13:34:20.424Z,71.36
2022-09-24T13:35:22.277Z,71.36
2022-09-24T13:36:20.415Z,69.92
2022-09-24T13:37:20.397Z,70.26
2022-09-24T13:38:20.378Z,70.96
2022-09-24T13:39:20.399Z,71.26
2022-09-24T13:40:20.445Z,71.26
2022-09-24T13:41:20.346Z,71.36
2022-09-24T13:42:20.341Z,71.56
2022-09-24T13:43:25.347Z,71.30
2022-09-24T13:44:20.311Z,71.87
2022-09-24T13:45:20.316Z,71.87
2022-09-24T13:46:20.394Z,71.97
2022-09-24T13:47:20.278Z,71.06
2022-09-24T13:48:20.285Z,70.96
2022-09-24T13:49:20.268Z,71.36
2022-09-24T13:50:20.256Z,71.06
2022-09-24T13:51:20.243Z,70.96
2022-09-24T13:52:20.223Z,71.16
2022-09-24T13:53:20.218Z,71.26
2022-09-24T13:54:25.224Z,70.96
2022-09-24T13:55:20.207Z,71.26
2022-09-24T13:56:20.180Z,71.33
2022-09-24T13:57:20.167Z,70.76
2022-09-24T13:58:20.154Z,71.16
2022-09-24T13:59:20.145Z,70.96
2022-09-24T14:00:20.224Z,71.47
2022-09-24T14:01:20.196Z,71.16
2022-09-24T14:02:20.340Z,71.26
2022-09-24T14:03:20.181Z,71.47
2022-09-24T14:04:20.108Z,71.36
2022-09-24T14:05:25.104Z,71.47
2022-09-24T14:06:20.096Z,71.70
2022-09-24T14:07:20.061Z,71.60
2022-09-24T14:08:20.054Z,71.60
2022-09-24T14:09:20.034Z,72.00
2022-09-24T14:10:20.022Z,71.80
2022-09-24T14:11:20.031Z,71.91
2022-09-24T14:12:20.020Z,71.40
2022-09-24T14:13:19.993Z,71.56
2022-09-24T14:14:19.984Z,71.47
2022-09-24T14:15:19.972Z,72.27
2022-09-24T14:16:25.049Z,71.56
2022-09-24T14:17:19.946Z,71.56
2022-09-24T14:18:19.958Z,71.87
2022-09-24T14:19:19.937Z,71.87
2022-09-24T14:20:19.950Z,71.97
2022-09-24T14:21:19.918Z,71.87
2022-09-24T14:22:19.904Z,71.56
2022-09-24T14:23:19.895Z,71.47
2022-09-24T14:24:19.867Z,71.43
2022-09-24T14:25:19.855Z,71.87
2022-09-24T14:26:19.882Z,71.43
2022-09-24T14:27:24.860Z,71.94
2022-09-24T14:28:20.201Z,71.23
2022-09-24T14:29:19.811Z,71.33
2022-09-24T14:30:19.826Z,71.13
2022-09-24T14:31:19.846Z,71.13
2022-09-24T14:32:19.777Z,71.33
2022-09-24T14:33:19.770Z,71.13
2022-09-24T14:34:19.760Z,70.93
2022-09-24T14:35:19.742Z,69.82
2022-09-24T14:36:19.770Z,70.63
2022-09-24T14:37:19.730Z,71.13
2022-09-24T14:38:24.731Z,71.03
2022-09-24T14:39:19.703Z,71.23
2022-09-24T14:40:19.770Z,71.33
2022-09-24T14:41:19.689Z,69.92
2022-09-24T14:42:19.663Z,71.03
2022-09-24T14:43:19.666Z,70.23
2022-09-24T14:44:19.664Z,70.63
2022-09-24T14:45:19.637Z,71.26
2022-09-24T14:46:19.698Z,70.86
2022-09-24T14:47:19.646Z,71.13
2022-09-24T14:48:19.612Z,71.16
2022-09-24T14:49:24.659Z,71.47
2022-09-24T14:50:19.575Z,71.56
2022-09-24T14:51:19.576Z,71.47
2022-09-24T14:52:19.576Z,71.87
2022-09-24T14:53:19.571Z,71.40
2022-09-24T14:54:19.548Z,71.77
2022-09-24T14:55:19.523Z,71.87
2022-09-24T14:56:19.529Z,71.47
2022-09-24T14:57:19.497Z,71.87
2022-09-24T14:58:19.484Z,71.56
2022-09-24T14:59:19.476Z,71.87
2022-09-24T15:00:24.501Z,71.56
2022-09-24T15:01:19.557Z,71.36
2022-09-24T15:02:19.762Z,71.36
2022-09-24T15:03:19.431Z,71.56
2022-09-24T15:04:19.507Z,71.26
2022-09-24T15:05:19.587Z,71.47
2022-09-24T15:06:19.417Z,71.16
2022-09-24T15:07:19.381Z,71.56
2022-09-24T15:08:19.491Z,71.30
2022-09-24T15:09:19.361Z,71.26
2022-09-24T15:10:19.353Z,71.36
2022-09-24T15:11:24.393Z,71.06
2022-09-24T15:12:19.327Z,71.50
2022-09-24T15:13:19.314Z,71.36
2022-09-24T15:14:19.305Z,71.36
2022-09-24T15:15:19.295Z,71.36
2022-09-24T15:16:19.380Z,71.16
2022-09-24T15:17:19.277Z,71.47
2022-09-24T15:18:19.295Z,71.77
2022-09-24T15:19:19.320Z,71.56
2022-09-24T15:20:19.239Z,71.56
2022-09-24T15:21:19.241Z,71.67
2022-09-24T15:22:24.242Z,72.07
2022-09-24T15:23:19.202Z,71.36
2022-09-24T15:24:20.243Z,71.13
2022-09-24T15:25:19.205Z,71.43
2022-09-24T15:26:19.182Z,71.33
2022-09-24T15:27:19.215Z,70.93
2022-09-24T15:28:19.149Z,70.63
2022-09-24T15:29:19.149Z,71.03
2022-09-24T15:30:19.140Z,70.63
2022-09-24T15:31:19.202Z,70.83
2022-09-24T15:32:19.160Z,70.83
2022-09-24T15:33:24.111Z,70.93
2022-09-24T15:34:20.077Z,71.13
2022-09-24T15:35:19.066Z,70.93
2022-09-24T15:36:19.195Z,71.23
2022-09-24T15:37:19.126Z,71.26
2022-09-24T15:38:19.043Z,71.36
2022-09-24T15:39:19.022Z,70.86
2022-09-24T15:40:19.134Z,69.85
2022-09-24T15:41:19.032Z,69.96
2022-09-24T15:42:19.027Z,69.96
2022-09-24T15:43:19.073Z,70.26
2022-09-24T15:44:26.146Z,70.26
2022-09-24T15:45:18.958Z,69.79
2022-09-24T15:46:19.003Z,69.96
2022-09-24T15:47:18.933Z,69.89
2022-09-24T15:48:18.938Z,69.99
2022-09-24T15:49:18.909Z,69.76
2022-09-24T15:50:18.930Z,69.69
2022-09-24T15:51:18.907Z,69.59
2022-09-24T15:52:18.877Z,69.79
2022-09-24T15:53:18.868Z,69.89
2022-09-24T15:54:18.853Z,69.59
2022-09-24T15:55:23.969Z,70.09
2022-09-24T15:56:18.841Z,70.09
2022-09-24T15:57:18.823Z,70.29
2022-09-24T15:58:19.755Z,71.10
2022-09-24T15:59:18.802Z,71.50
2022-09-24T16:00:18.791Z,71.30
2022-09-24T16:01:18.947Z,71.53
2022-09-24T16:02:18.845Z,71.60
2022-09-24T16:03:18.840Z,71.64
2022-09-24T16:04:18.748Z,71.70
2022-09-24T16:05:18.731Z,71.40
2022-09-24T16:06:23.782Z,71.53
2022-09-24T16:07:18.704Z,71.64
2022-09-24T16:08:18.695Z,71.23
2022-09-24T16:09:18.705Z,71.23
2022-09-24T16:10:18.716Z,71.23
2022-09-24T16:11:18.770Z,71.23
2022-09-24T16:12:18.664Z,71.23
2022-09-24T16:13:18.649Z,71.44
2022-09-24T16:14:18.632Z,71.53
2022-09-24T16:15:18.618Z,71.53
2022-09-24T16:16:18.639Z,71.64
2022-09-24T16:17:23.628Z,71.64
2022-09-24T16:18:18.595Z,71.73
2022-09-24T16:19:18.573Z,71.84
2022-09-24T16:20:18.573Z,72.54
2022-09-24T16:21:18.580Z,72.34
2022-09-24T16:22:20.616Z,71.84
2022-09-24T16:23:18.529Z,72.67
2022-09-24T16:24:18.521Z,72.54
2022-09-24T16:25:18.507Z,71.84
2022-09-24T16:26:18.499Z,72.88
2022-09-24T16:27:18.529Z,71.97
2022-09-24T16:28:23.497Z,72.24
2022-09-24T16:29:18.468Z,72.27
2022-09-24T16:30:18.455Z,72.88
2022-09-24T16:31:18.516Z,73.18
2022-09-24T16:32:18.440Z,73.08
2022-09-24T16:33:18.422Z,71.87
2022-09-24T16:34:18.409Z,73.28
2022-09-24T16:35:18.393Z,73.18
2022-09-24T16:36:18.398Z,71.87
2022-09-24T16:37:18.393Z,71.67
2022-09-24T16:38:22.586Z,72.38
2022-09-24T16:39:23.370Z,72.07
2022-09-24T16:40:18.376Z,72.58
2022-09-24T16:41:18.326Z,71.87
2022-09-24T16:42:18.334Z,71.87
2022-09-24T16:43:18.323Z,72.58
2022-09-24T16:44:18.315Z,73.28
2022-09-24T16:45:18.291Z,73.18
2022-09-24T16:46:20.897Z,73.79
2022-09-24T16:47:18.270Z,73.18
2022-09-24T16:48:18.254Z,73.28
2022-09-24T16:49:18.258Z,73.79
2022-09-24T16:50:23.250Z,73.38
2022-09-24T16:51:18.222Z,73.88
2022-09-24T16:52:18.224Z,72.88